createdAt,value
2019-03-29T00:02:47.143Z,5.98
2019-03-29T00:07:51.180Z,5.91
2019-03-29T00:12:56.978Z,5.82
2019-03-29T00:17:59.379Z,5.75
2019-03-29T00:23:01.634Z,5.66
2019-03-29T00:28:03.813Z,5.60
2019-03-29T00:33:07.075Z,5.56
2019-03-29T00:38:18.197Z,5.49
2019-03-29T00:43:20.758Z,5.41
2019-03-29T00:48:22.919Z,5.35
2019-03-29T00:53:25.033Z,5.26
2019-03-29T00:58:27.350Z,5.22
2019-03-29T01:03:30.133Z,5.15
2019-03-29T01:08:32.298Z,5.09
2019-03-29T01:13:34.436Z,5.08
2019-03-29T01:18:37.941Z,5.08
2019-03-29T01:23:40.736Z,5.07
2019-03-29T01:28:43.423Z,4.99
2019-03-29T01:33:46.454Z,4.92
2019-03-29T01:38:48.571Z,4.86
2019-03-29T01:43:51.272Z,4.79
2019-03-29T01:48:53.551Z,4.76
2019-03-29T01:53:56.029Z,4.73
2019-03-29T01:58:58.344Z,4.68
2019-03-29T02:04:00.475Z,4.65
2019-03-29T02:09:04.983Z,4.60
2019-03-29T02:14:07.284Z,4.56
2019-03-29T02:19:09.495Z,4.52
2019-03-29T02:24:12.059Z,4.48
2019-03-29T02:29:14.419Z,4.48
2019-03-29T02:34:17.243Z,4.39
2019-03-29T02:39:19.423Z,4.31
2019-03-29T02:44:21.710Z,4.30
2019-03-29T02:49:24.836Z,4.25
2019-03-29T02:54:27.258Z,4.21
2019-03-29T02:59:29.414Z,4.17
2019-03-29T03:04:31.509Z,4.16
2019-03-29T03:09:33.660Z,4.10
2019-03-29T03:14:35.820Z,4.03
2019-03-29T03:19:38.048Z,4.02
2019-03-29T03:24:40.388Z,3.97
2019-03-29T03:29:42.576Z,3.97
2019-03-29T03:34:45.260Z,3.94
2019-03-29T03:39:47.552Z,3.88
2019-03-29T03:44:50.142Z,3.82
2019-03-29T03:49:52.292Z,3.76
2019-03-29T03:54:54.608Z,3.73
2019-03-29T03:59:56.809Z,3.71
2019-03-29T04:04:58.987Z,3.65
2019-03-29T04:10:01.615Z,3.60
2019-03-29T04:15:03.780Z,3.55
2019-03-29T04:20:06.066Z,3.50
2019-03-29T04:25:08.204Z,3.50
2019-03-29T04:30:10.472Z,3.47
2019-03-29T04:35:12.626Z,3.42
2019-03-29T04:40:14.918Z,3.39
2019-03-29T04:45:17.106Z,3.34
2019-03-29T04:50:19.371Z,3.31
2019-03-29T04:55:21.536Z,3.26
2019-03-29T05:00:23.732Z,3.25
2019-03-29T05:05:25.914Z,3.19
2019-03-29T05:10:28.091Z,3.17
2019-03-29T05:15:30.239Z,3.10
2019-03-29T05:20:32.458Z,3.07
2019-03-29T05:25:34.656Z,3.06
2019-03-29T05:30:36.754Z,3.05
2019-03-29T05:35:39.230Z,3.06
2019-03-29T05:40:41.346Z,3.06
2019-03-29T05:45:43.560Z,3.10
2019-03-29T05:50:46.013Z,3.07
2019-03-29T05:55:48.538Z,3.12
2019-03-29T06:00:50.942Z,3.19
2019-03-29T06:05:53.114Z,3.19
2019-03-29T06:10:55.282Z,3.32
2019-03-29T06:15:58.062Z,3.38
2019-03-29T06:21:00.262Z,3.47
2019-03-29T06:26:02.467Z,3.55
2019-03-29T06:31:04.806Z,3.63
2019-03-29T06:36:07.420Z,3.72
2019-03-29T06:41:09.621Z,3.80
2019-03-29T06:46:12.488Z,3.89
2019-03-29T06:51:14.677Z,4.05
2019-03-29T06:56:16.934Z,4.11
2019-03-29T07:01:19.189Z,4.24
2019-03-29T07:06:22.589Z,4.36
2019-03-29T07:11:25.538Z,4.44
2019-03-29T07:16:27.922Z,4.51
2019-03-29T07:21:30.745Z,4.67
2019-03-29T07:26:32.967Z,4.87
2019-03-29T07:31:35.154Z,5.11
2019-03-29T07:36:37.338Z,5.33
2019-03-29T07:41:39.713Z,5.58
2019-03-29T07:46:41.934Z,5.78
2019-03-29T07:51:44.276Z,5.97
2019-03-29T07:56:46.783Z,6.15
2019-03-29T08:01:48.981Z,6.30
2019-03-29T08:06:51.202Z,6.48
2019-03-29T08:11:55.124Z,6.74
2019-03-29T08:16:57.879Z,6.95
2019-03-29T08:22:00.473Z,7.21
2019-03-29T08:27:02.698Z,7.51
2019-03-29T08:32:04.809Z,7.83
2019-03-29T08:37:06.972Z,8.12
2019-03-29T08:42:09.622Z,8.41
2019-03-29T08:47:12.209Z,8.63
2019-03-29T08:52:14.465Z,8.91
2019-03-29T08:57:16.617Z,9.26
2019-03-29T09:02:18.781Z,9.62
2019-03-29T09:07:21.363Z,10.00
2019-03-29T09:12:23.630Z,10.49
2019-03-29T09:17:25.962Z,11.01
2019-03-29T09:22:28.122Z,11.63
2019-03-29T09:27:32.014Z,12.06
2019-03-29T09:32:34.473Z,12.40
2019-03-29T09:37:36.660Z,12.71
2019-03-29T09:42:38.932Z,13.02
2019-03-29T09:47:41.185Z,13.62
2019-03-29T09:52:43.435Z,14.06
2019-03-29T09:57:45.620Z,14.43
2019-03-29T10:02:47.858Z,14.57
2019-03-29T10:07:50.061Z,14.88
2019-03-29T10:12:52.286Z,15.26
2019-03-29T10:17:54.497Z,15.46
2019-03-29T10:22:56.663Z,15.66
2019-03-29T10:27:58.804Z,15.98
2019-03-29T10:33:00.961Z,16.46
2019-03-29T10:38:03.154Z,16.58
2019-03-29T10:43:05.317Z,16.59
2019-03-29T10:48:07.520Z,16.58
2019-03-29T10:53:09.758Z,16.86
2019-03-29T10:58:11.950Z,17.18
2019-03-29T11:03:15.499Z,17.43
2019-03-29T11:08:17.683Z,17.29
2019-03-29T11:13:19.842Z,17.09
2019-03-29T11:18:24.722Z,17.32
2019-03-29T11:23:30.927Z,17.23
2019-03-29T11:28:33.124Z,17.28
2019-03-29T11:33:35.314Z,17.36
2019-03-29T11:38:37.562Z,17.41
2019-03-29T11:43:40.396Z,17.59
2019-03-29T11:48:42.726Z,17.55
2019-03-29T11:53:44.904Z,17.66
2019-03-29T11:58:47.637Z,17.83
2019-03-29T12:03:49.982Z,18.10
2019-03-29T12:08:52.146Z,18.31
2019-03-29T12:13:55.903Z,18.36
2019-03-29T12:18:58.318Z,18.49
2019-03-29T12:24:00.671Z,18.58
2019-03-29T12:29:03.012Z,18.50
2019-03-29T12:34:05.521Z,18.84
2019-03-29T12:39:07.725Z,18.98
2019-03-29T12:44:09.920Z,19.16
2019-03-29T12:49:12.054Z,19.21
2019-03-29T12:54:14.187Z,19.12
2019-03-29T12:59:16.356Z,19.34
2019-03-29T13:04:18.557Z,19.25
2019-03-29T13:09:20.776Z,19.41
2019-03-29T13:14:24.034Z,19.58
2019-03-29T13:19:26.311Z,19.43
2019-03-29T13:24:28.464Z,19.62
2019-03-29T13:29:31.974Z,19.79
2019-03-29T13:34:34.726Z,19.42
2019-03-29T13:39:36.856Z,19.65
2019-03-29T13:44:38.935Z,19.73
2019-03-29T13:49:41.036Z,19.68
2019-03-29T13:54:43.280Z,19.48
2019-03-29T13:59:45.453Z,19.72
2019-03-29T14:04:47.550Z,19.80
2019-03-29T14:09:49.702Z,20.06
2019-03-29T14:14:51.844Z,20.11
2019-03-29T14:19:54.088Z,20.02
2019-03-29T14:24:56.584Z,20.23
2019-03-29T14:30:04.775Z,20.64
2019-03-29T14:35:06.614Z,20.77
2019-03-29T14:40:09.010Z,20.77
2019-03-29T14:45:11.359Z,20.72
2019-03-29T14:50:14.192Z,20.91
2019-03-29T14:55:16.565Z,20.78
2019-03-29T15:00:34.155Z,20.83
2019-03-29T15:05:37.412Z,20.91
2019-03-29T15:10:39.988Z,20.79
2019-03-29T15:15:42.419Z,20.70
2019-03-29T15:20:53.442Z,20.78
2019-03-29T15:25:50.361Z,20.83
2019-03-29T15:30:53.706Z,20.72
2019-03-29T15:35:59.917Z,20.85
2019-03-29T15:41:05.683Z,20.78
2019-03-29T15:46:08.167Z,20.67
2019-03-29T15:51:11.094Z,20.68
2019-03-29T15:56:13.641Z,20.62
2019-03-29T16:01:16.117Z,20.56
2019-03-29T16:06:18.618Z,20.49
2019-03-29T16:11:22.534Z,20.55
2019-03-29T16:16:25.194Z,20.46
2019-03-29T16:21:27.720Z,20.48
2019-03-29T16:26:30.186Z,20.45
2019-03-29T16:31:32.776Z,20.31
2019-03-29T16:36:35.052Z,20.14
2019-03-29T16:41:37.323Z,20.11
2019-03-29T16:46:40.123Z,20.01
2019-03-29T16:51:42.364Z,19.95
2019-03-29T16:56:44.686Z,19.90
2019-03-29T17:01:46.924Z,19.89
2019-03-29T17:06:50.150Z,19.80
2019-03-29T17:11:52.294Z,19.59
2019-03-29T17:16:54.442Z,19.45
2019-03-29T17:21:57.131Z,19.34
2019-03-29T17:26:59.475Z,19.14
2019-03-29T17:32:01.705Z,18.96
2019-03-29T17:37:03.853Z,18.81
2019-03-29T17:42:08.199Z,18.62
2019-03-29T17:47:10.501Z,18.33
2019-03-29T17:52:12.769Z,17.84
2019-03-29T17:57:15.056Z,17.39
2019-03-29T18:02:17.188Z,17.01
2019-03-29T18:07:19.403Z,16.70
2019-03-29T18:12:22.025Z,16.40
2019-03-29T18:17:24.846Z,16.13
2019-03-29T18:22:27.071Z,15.88
2019-03-29T18:27:29.305Z,15.72
2019-03-29T18:32:31.893Z,15.44
2019-03-29T18:37:34.360Z,15.25
2019-03-29T18:42:36.695Z,14.96
2019-03-29T18:47:41.858Z,14.70
2019-03-29T18:52:44.591Z,14.45
2019-03-29T18:57:49.036Z,14.26
2019-03-29T19:02:54.494Z,14.09
2019-03-29T19:07:58.313Z,13.90
2019-03-29T19:13:00.793Z,13.80
2019-03-29T19:18:03.445Z,13.74
2019-03-29T19:23:05.573Z,13.68
2019-03-29T19:28:08.163Z,13.55
2019-03-29T19:33:10.347Z,13.43
2019-03-29T19:38:12.591Z,13.33
2019-03-29T19:43:20.741Z,13.24
2019-03-29T19:48:22.888Z,13.14
2019-03-29T19:53:26.118Z,13.01
2019-03-29T19:58:28.333Z,12.82
2019-03-29T20:03:30.524Z,12.67
2019-03-29T20:08:32.955Z,12.43
2019-03-29T20:13:35.137Z,12.18
2019-03-29T20:18:38.287Z,11.97
2019-03-29T20:23:40.533Z,11.80
2019-03-29T20:28:45.209Z,11.69
2019-03-29T20:33:47.880Z,11.56
2019-03-29T20:38:51.584Z,11.48
2019-03-29T20:43:53.827Z,11.45
2019-03-29T20:49:06.315Z,11.43
2019-03-29T20:54:08.484Z,11.42
2019-03-29T20:59:10.897Z,11.41
2019-03-29T21:04:13.420Z,11.37
2019-03-29T21:09:15.512Z,11.33
2019-03-29T21:14:18.063Z,11.25
2019-03-29T21:19:20.482Z,11.16
2019-03-29T21:24:22.774Z,11.08
2019-03-29T21:29:25.117Z,10.98
2019-03-29T21:34:27.679Z,10.85
2019-03-29T21:39:31.378Z,10.72
2019-03-29T21:44:33.728Z,10.57
2019-03-29T21:49:36.248Z,10.45
2019-03-29T21:54:39.261Z,10.38
2019-03-29T21:59:41.518Z,10.29
2019-03-29T22:04:43.744Z,10.21
2019-03-29T22:09:45.956Z,10.13
2019-03-29T22:14:48.106Z,10.07
2019-03-29T22:19:51.149Z,10.00
2019-03-29T22:24:53.301Z,9.97
2019-03-29T22:29:55.991Z,9.89
2019-03-29T22:34:58.308Z,9.75
2019-03-29T22:40:00.433Z,9.68
2019-03-29T22:45:02.971Z,9.64
2019-03-29T22:50:06.031Z,9.58
2019-03-29T22:55:08.285Z,9.56
2019-03-29T23:00:17.832Z,9.53
2019-03-29T23:05:20.147Z,9.47
2019-03-29T23:10:22.280Z,9.42
2019-03-29T23:15:24.454Z,9.34
2019-03-29T23:20:27.397Z,9.27
2019-03-29T23:25:29.558Z,9.21
2019-03-29T23:30:32.052Z,9.17
2019-03-29T23:35:34.166Z,9.11
2019-03-29T23:40:36.698Z,9.03
2019-03-29T23:45:39.145Z,8.95
2019-03-29T23:50:41.278Z,8.94
2019-03-29T23:55:43.418Z,8.91
